Time;durP1;ratioP1;P1;durP2;ratioP2;P2;SDS_P1;SDS_P2;PMS_P1;PMS_P2;Temp;Humidity;BMP_temperature;BMP_pressure;BME280_temperature;BME280_humidity;BME280_pressure;Samples;Min_cycle;Max_cycle;Signal;HPM_P1;HPM_P2
2024/03/31 04:57:37;;;;;;;15.38;10.40;;;;;;;11.51;73.59;98234.59;6097677;23;20019;-89
2024/03/31 05:00:03;;;;;;;14.80;11.48;;;;;;;11.52;73.51;98232.81;6048445;23;20022;-90
2024/03/31 05:02:29;;;;;;;13.98;11.27;;;;;;;11.53;73.60;98232.69;6048345;23;20085;-90
2024/03/31 05:09:03;;;;;;;16.67;11.80;;;;;;;11.53;73.01;98230.06;6088454;23;20021;-89
2024/03/31 05:11:29;;;;;;;15.48;11.23;;;;;;;11.56;73.52;98232.41;6043748;23;20023;-89
2024/03/31 05:13:54;;;;;;;14.88;11.25;;;;;;;11.56;73.71;98232.41;6043798;23;20074;-89
2024/03/31 05:19:51;;;;;;;14.15;11.25;;;;;;;11.59;73.46;98226.88;6067821;23;20102;-89
2024/03/31 05:22:17;;;;;;;15.02;11.77;;;;;;;11.62;73.66;98233.69;6046252;23;20019;-90
2024/03/31 05:25:09;;;;;;;15.32;12.00;;;;;;;11.60;73.15;98233.81;6067525;23;20060;-93
2024/03/31 05:27:34;;;;;;;16.75;12.57;;;;;;;11.66;73.66;98242.19;6043833;23;20469;-89
2024/03/31 05:30:12;;;;;;;18.00;12.73;;;;;;;11.62;73.10;98241.59;6043506;23;20023;-90
2024/03/31 05:32:38;;;;;;;16.10;12.93;;;;;;;11.69;73.35;98239.25;6043597;23;20030;-90
2024/03/31 05:35:04;;;;;;;17.05;13.02;;;;;;;11.69;73.74;98244.53;6067307;23;20054;-89
2024/03/31 05:38:10;;;;;;;15.20;13.13;;;;;;;11.65;73.03;98246.59;6048297;23;20378;-90
2024/03/31 05:44:20;;;;;;;15.15;12.60;;;;;;;11.65;73.21;98238.69;6094249;23;20025;-89
2024/03/31 05:46:46;;;;;;;18.00;13.63;;;;;;;11.67;73.51;98235.94;6043494;23;20023;-90
2024/03/31 05:49:11;;;;;;;18.30;14.15;;;;;;;11.66;74.09;98234.28;6045028;23;20410;-89
2024/03/31 05:51:48;;;;;;;18.92;13.98;;;;;;;11.62;73.57;98238.13;6043334;23;20031;-90
2024/03/31 05:54:14;;;;;;;18.83;13.77;;;;;;;11.65;74.07;98251.88;6045310;23;20019;-89
2024/03/31 05:56:40;;;;;;;23.50;15.43;;;;;;;11.65;74.06;98257.16;6043140;23;20030;-89
2024/03/31 05:59:43;;;;;;;19.67;14.45;;;;;;;11.62;73.63;98251.31;6043694;23;20350;-90
2024/03/31 06:02:08;;;;;;;18.17;13.53;;;;;;;11.65;74.07;98241.34;6044443;23;20031;-90
2024/03/31 06:04:34;;;;;;;18.08;14.38;;;;;;;11.65;74.30;98240.50;6043096;23;20083;-90
2024/03/31 06:07:25;;;;;;;18.65;14.65;;;;;;;11.60;74.06;98248.81;6043424;23;20022;-91
2024/03/31 06:09:50;;;;;;;18.50;14.98;;;;;;;11.65;74.33;98251.03;6043506;23;20342;-92
2024/03/31 06:12:16;;;;;;;19.33;15.68;;;;;;;11.65;74.52;98251.03;6046424;23;20065;-91
2024/03/31 06:18:28;;;;;;;18.33;14.20;;;;;;;11.65;74.50;98253.66;6097625;23;20045;-91
2024/03/31 06:24:34;;;;;;;19.13;14.38;;;;;;;11.62;74.45;98256.59;6086813;23;20022;-92
2024/03/31 06:30:40;;;;;;;18.23;13.98;;;;;;;11.57;74.70;98249.91;6088154;23;20021;-91
2024/03/31 06:36:53;;;;;;;19.85;13.93;;;;;;;11.54;74.93;98242.25;6097713;23;20020;-92
2024/03/31 06:43:06;;;;;;;18.10;14.43;;;;;;;11.53;75.02;98242.38;6097580;23;20090;-91
2024/03/31 06:49:19;;;;;;;18.08;14.55;;;;;;;11.51;75.29;98242.50;6095786;23;20353;-91
2024/03/31 06:51:47;;;;;;;17.70;14.90;;;;;;;11.50;75.40;98248.75;6038669;23;20026;-87
2024/03/31 06:54:13;;;;;;;19.35;15.10;;;;;;;11.51;75.59;98250.41;6015153;23;20183;-87
2024/03/31 06:56:38;;;;;;;21.17;16.13;;;;;;;11.53;75.86;98245.03;6014641;23;20027;-87
2024/03/31 06:59:04;;;;;;;20.95;15.55;;;;;;;11.54;76.12;98244.91;6015034;23;20027;-87
2024/03/31 07:01:30;;;;;;;18.52;14.90;;;;;;;11.58;76.01;98248.94;6038455;23;20031;-86
2024/03/31 07:03:56;;;;;;;19.85;15.75;;;;;;;11.61;76.10;98245.19;6014678;23;20408;-86
2024/03/31 07:06:21;;;;;;;23.33;16.25;;;;;;;11.65;76.31;98232.59;6038841;23;20464;-86
2024/03/31 07:08:47;;;;;;;21.85;16.40;;;;;;;11.69;76.62;98231.34;6016371;23;20030;-87
2024/03/31 07:11:13;;;;;;;18.05;15.85;;;;;;;11.72;76.58;98239.00;6040229;23;20085;-87
2024/03/31 07:13:38;;;;;;;19.17;16.15;;;;;;;11.78;76.56;98235.81;6016134;23;20110;-87
2024/03/31 07:16:04;;;;;;;19.08;15.38;;;;;;;11.82;76.78;98237.22;6016183;23;20469;-87
2024/03/31 07:18:30;;;;;;;21.52;16.98;;;;;;;11.86;76.67;98236.00;6040176;23;20034;-87
2024/03/31 07:20:55;;;;;;;19.02;15.60;;;;;;;11.90;76.58;98227.81;6016540;23;20027;-86
2024/03/31 07:23:21;;;;;;;18.77;15.32;;;;;;;11.94;76.63;98232.72;6016399;23;20023;-87
2024/03/31 07:25:47;;;;;;;20.23;15.85;;;;;;;11.99;76.72;98224.38;6039865;23;20030;-86
2024/03/31 07:28:12;;;;;;;20.58;16.80;;;;;;;12.04;76.90;98232.72;6039933;23;20102;-87
2024/03/31 07:30:38;;;;;;;20.10;15.45;;;;;;;12.08;76.88;98231.50;6039940;23;20356;-87
2024/03/31 07:33:04;;;;;;;21.45;15.98;;;;;;;12.13;76.84;98233.75;6016522;23;20023;-87
2024/03/31 07:35:30;;;;;;;19.65;15.52;;;;;;;12.17;76.51;98234.31;6039567;23;20026;-86
2024/03/31 07:37:55;;;;;;;23.00;16.92;;;;;;;12.19;76.75;98230.56;6016579;23;20038;-87
2024/03/31 07:40:21;;;;;;;19.35;15.88;;;;;;;12.24;76.75;98230.16;6040009;23;20038;-86
2024/03/31 07:42:47;;;;;;;20.00;16.15;;;;;;;12.27;76.86;98221.16;6041537;23;20026;-87
2024/03/31 07:45:12;;;;;;;20.83;15.60;;;;;;;12.30;76.84;98223.53;6016812;23;20027;-86
2024/03/31 07:47:38;;;;;;;19.70;15.70;;;;;;;12.34;76.90;98214.34;6040033;23;20111;-87
2024/03/31 07:50:09;;;;;;;18.60;15.98;;;;;;;12.35;76.76;98218.66;6040047;23;20430;-87
2024/03/31 07:52:35;;;;;;;21.20;16.02;;;;;;;12.42;76.93;98221.59;6017851;23;20030;-88
2024/03/31 07:55:08;;;;;;;22.15;16.55;;;;;;;12.45;77.12;98223.94;6017459;23;20023;-88
2024/03/31 07:57:34;;;;;;;;;;;;;;;12.51;76.13;98226.03;6018024;23;20037;-87
2024/03/31 07:59:59;;;;;;;18.92;14.25;;;;;;;12.59;77.09;98222.69;6041257;23;19917;-87
2024/03/31 08:02:25;;;;;;;20.23;16.35;;;;;;;12.62;76.98;98220.63;6016550;23;20022;-87
2024/03/31 08:04:51;;;;;;;22.92;18.15;;;;;;;12.66;77.35;98213.25;6015679;23;20026;-87
2024/03/31 08:07:19;;;;;;;22.92;18.13;;;;;;;12.70;77.19;98216.44;6040247;23;20468;-87
2024/03/31 08:09:46;;;;;;;23.05;19.33;;;;;;;12.74;76.76;98213.38;6041979;23;20364;-87
2024/03/31 08:12:12;;;;;;;23.25;18.40;;;;;;;12.77;76.57;98213.13;6041730;23;20026;-87
2024/03/31 08:14:38;;;;;;;27.05;19.85;;;;;;;12.81;76.25;98204.91;6017462;23;20029;-88
2024/03/31 08:17:04;;;;;;;24.05;20.13;;;;;;;12.82;76.37;98203.94;6018325;23;20106;-87
2024/03/31 08:19:30;;;;;;;24.80;19.48;;;;;;;12.82;76.34;98204.75;6018026;23;20363;-88
2024/03/31 08:21:58;;;;;;;27.45;19.52;;;;;;;12.82;76.36;98206.59;6018135;23;20082;-88
2024/03/31 08:24:36;;;;;;;28.42;19.23;;;;;;;12.85;77.08;98191.28;6017201;23;20022;-87
2024/03/31 08:27:02;;;;;;;23.45;19.55;;;;;;;12.92;77.75;98194.19;6041733;23;20464;-88
2024/03/31 08:29:30;;;;;;;28.17;20.55;;;;;;;13.00;78.27;98193.47;6017579;23;20033;-88
2024/03/31 08:31:55;;;;;;;28.75;21.38;;;;;;;13.08;78.19;98190.97;6017954;23;20038;-88
2024/03/31 08:34:24;;;;;;;25.92;21.13;;;;;;;13.15;78.07;98178.84;6017536;23;20026;-87
2024/03/31 08:36:51;;;;;;;28.83;23.35;;;;;;;13.28;78.66;98175.06;6017900;23;20126;-88
2024/03/31 08:39:17;;;;;;;27.45;22.83;;;;;;;13.37;78.58;98168.06;6017598;23;20330;-88
2024/03/31 08:41:53;;;;;;;32.28;24.25;;;;;;;13.47;77.51;98186.53;6041600;23;20034;-88
2024/03/31 08:44:24;;;;;;;28.45;22.80;;;;;;;13.53;76.69;98178.88;6042094;23;20025;-88
2024/03/31 08:46:52;;;;;;;26.75;22.08;;;;;;;13.59;76.67;98182.75;6042956;23;20033;-88
2024/03/31 08:49:21;;;;;;;28.52;22.55;;;;;;;13.62;76.30;98187.78;6043019;23;20022;-88
2024/03/31 08:51:48;;;;;;;26.58;22.75;;;;;;;13.65;76.19;98184.81;6042446;23;20082;-88
2024/03/31 08:54:14;;;;;;;32.40;23.15;;;;;;;13.66;75.93;98185.66;6017230;23;20461;-88
2024/03/31 08:56:40;;;;;;;28.17;23.30;;;;;;;13.66;75.67;98186.50;6041463;23;20061;-88
2024/03/31 08:59:05;;;;;;;28.48;21.92;;;;;;;13.64;75.62;98192.91;6017619;23;20113;-88
2024/03/31 09:01:34;;;;;;;27.45;22.80;;;;;;;13.61;75.40;98190.56;6017824;23;20086;-88
2024/03/31 09:04:00;;;;;;;29.15;24.50;;;;;;;13.63;75.93;98178.00;6040790;23;20023;-88
2024/03/31 09:06:25;;;;;;;30.48;25.55;;;;;;;13.61;76.28;98180.78;6017777;23;20543;-88
2024/03/31 09:08:59;;;;;;;30.35;25.38;;;;;;;13.59;76.04;98187.22;6040850;23;20054;-88
2024/03/31 09:11:25;;;;;;;33.20;25.75;;;;;;;13.62;76.99;98177.19;6041001;23;20485;-88
2024/03/31 09:13:51;;;;;;;34.88;27.17;;;;;;;13.66;77.53;98170.63;6040856;23;20030;-88
2024/03/31 09:16:16;;;;;;;37.97;28.60;;;;;;;13.72;78.23;98160.44;6041191;23;20023;-88
2024/03/31 09:18:44;;;;;;;38.58;28.35;;;;;;;13.83;79.24;98157.56;6041235;23;20031;-88
2024/03/31 09:21:10;;;;;;;37.15;28.70;;;;;;;13.98;80.24;98155.25;6040831;23;20030;-88
2024/03/31 09:23:37;;;;;;;38.63;30.33;;;;;;;14.18;81.01;98163.94;6016732;23;20022;-88
2024/03/31 09:26:13;;;;;;;39.03;28.50;;;;;;;14.39;80.28;98157.47;6017534;23;20034;-88
2024/03/31 09:28:38;;;;;;;36.80;28.02;;;;;;;14.63;79.95;98157.84;6017459;23;20078;-88
2024/03/31 09:31:04;;;;;;;31.55;27.25;;;;;;;14.82;79.21;98156.84;6040773;23;20030;-88
2024/03/31 09:33:37;;;;;;;32.90;26.95;;;;;;;14.95;77.10;98146.69;6016998;23;20334;-88
2024/03/31 09:36:12;;;;;;;35.95;28.40;;;;;;;15.11;77.20;98150.44;6017689;23;20305;-88
2024/03/31 09:38:37;;;;;;;36.63;29.20;;;;;;;15.19;76.52;98142.53;6036105;23;20031;-88
2024/03/31 09:41:03;;;;;;;36.53;28.45;;;;;;;15.24;75.64;98142.88;6012161;23;20032;-88
2024/03/31 09:43:29;;;;;;;34.70;27.67;;;;;;;15.27;75.58;98138.25;6017228;23;20352;-88
2024/03/31 09:46:00;;;;;;;33.67;27.63;;;;;;;15.29;74.89;98141.59;6017727;23;20029;-88
2024/03/31 09:48:27;;;;;;;34.15;27.40;;;;;;;15.28;74.49;98130.13;6017358;23;20022;-88
2024/03/31 09:51:02;;;;;;;32.92;26.40;;;;;;;15.26;73.69;98123.34;6016978;23;20027;-88
2024/03/31 09:53:29;;;;;;;33.47;26.70;;;;;;;15.31;75.43;98131.63;6016569;23;20023;-88
2024/03/31 09:56:07;;;;;;;37.88;28.17;;;;;;;15.32;74.71;98130.63;6016994;23;20026;-88
2024/03/31 09:58:36;;;;;;;33.28;27.75;;;;;;;15.43;76.43;98133.03;6017751;23;20033;-87
2024/03/31 10:01:05;;;;;;;33.30;27.30;;;;;;;15.56;77.22;98118.50;6042444;23;20034;-87
2024/03/31 10:03:38;;;;;;;34.25;25.92;;;;;;;15.67;76.43;98115.56;6041165;23;20026;-87
2024/03/31 10:06:04;;;;;;;37.28;27.92;;;;;;;15.83;77.07;98111.28;6016805;23;20038;-87
2024/03/31 10:08:31;;;;;;;36.15;25.88;;;;;;;15.96;76.99;98098.38;6016844;23;20027;-88
2024/03/31 10:11:00;;;;;;;36.33;25.92;;;;;;;16.11;76.53;98103.06;6017055;23;20030;-88
2024/03/31 10:13:27;;;;;;;33.22;25.48;;;;;;;16.24;77.17;98111.38;6016241;23;20022;-87
2024/03/31 10:15:57;;;;;;;35.40;26.90;;;;;;;16.41;75.89;98111.38;6016313;23;20029;-87
2024/03/31 10:18:26;;;;;;;31.20;24.60;;;;;;;16.56;75.32;98116.03;6016607;23;20031;-87
2024/03/31 10:20:56;;;;;;;33.53;23.80;;;;;;;16.70;75.11;98120.66;6040834;23;20034;-87
2024/03/31 10:23:24;;;;;;;27.92;22.35;;;;;;;16.80;74.67;98117.81;6016230;23;20031;-87
2024/03/31 10:25:52;;;;;;;31.83;23.88;;;;;;;16.89;74.41;98132.75;6039969;23;20027;-87
2024/03/31 10:28:18;;;;;;;29.23;21.60;;;;;;;16.98;75.42;98136.25;6016722;23;20033;-87
2024/03/31 10:30:43;;;;;;;32.20;23.00;;;;;;;17.09;75.37;98131.59;6040406;23;20027;-87
2024/03/31 10:33:10;;;;;;;29.73;22.13;;;;;;;17.20;75.25;98133.88;6040252;23;20472;-87
2024/03/31 10:35:40;;;;;;;27.83;20.65;;;;;;;17.32;74.71;98126.38;6039516;23;20033;-88
2024/03/31 10:38:10;;;;;;;25.98;18.58;;;;;;;17.44;73.45;98132.97;6016542;23;20495;-87
2024/03/31 10:40:36;;;;;;;23.38;16.85;;;;;;;17.60;74.24;98125.09;6040559;23;20105;-87
2024/03/31 10:43:03;;;;;;;22.35;16.40;;;;;;;17.72;73.67;98129.03;6040358;23;20027;-88
2024/03/31 10:45:30;;;;;;;29.63;17.92;;;;;;;17.84;73.20;98127.63;6017128;23;20030;-87
2024/03/31 10:47:56;;;;;;;23.52;16.70;;;;;;;17.93;72.98;98127.56;6016154;23;20060;-87
2024/03/31 10:50:24;;;;;;;21.98;16.67;;;;;;;18.01;72.14;98124.84;6016066;23;20026;-87
2024/03/31 10:52:50;;;;;;;18.45;14.88;;;;;;;18.10;72.57;98125.69;6016108;23;20039;-87
2024/03/31 10:55:18;;;;;;;22.45;15.98;;;;;;;18.17;72.04;98126.63;6016401;23;20445;-88
2024/03/31 10:57:55;;;;;;;22.50;16.02;;;;;;;18.27;70.47;98120.25;6016701;23;20412;-87
2024/03/31 11:00:21;;;;;;;22.60;15.82;;;;;;;18.45;72.51;98123.41;6040029;23;20023;-87
2024/03/31 11:02:49;;;;;;;23.05;15.75;;;;;;;18.59;72.69;98123.63;6040146;23;20023;-87
2024/03/31 11:05:20;;;;;;;23.33;15.60;;;;;;;18.73;70.31;98130.03;6039585;23;20031;-87
2024/03/31 11:07:46;;;;;;;19.65;15.40;;;;;;;18.94;72.67;98131.97;6016767;23;20394;-87
2024/03/31 11:10:14;;;;;;;18.70;15.00;;;;;;;19.18;72.99;98145.28;6016046;23;20078;-88
2024/03/31 11:12:44;;;;;;;18.30;14.85;;;;;;;19.46;71.72;98133.94;6040121;23;20027;-88
2024/03/31 11:15:11;;;;;;;22.52;15.70;;;;;;;19.87;75.95;98132.59;6039901;23;20031;-88
2024/03/31 11:17:39;;;;;;;20.13;15.18;;;;;;;20.36;75.74;98122.22;6039952;23;20026;-87
2024/03/31 11:20:05;;;;;;;18.50;14.57;;;;;;;20.86;73.93;98119.53;6039928;23;20455;-88
2024/03/31 11:22:32;;;;;;;17.35;13.18;;;;;;;21.33;71.18;98108.31;6016542;23;20487;-88
2024/03/31 11:24:58;;;;;;;16.92;11.80;;;;;;;21.74;69.71;98107.50;6015449;23;20022;-88
2024/03/31 11:27:26;;;;;;;15.93;11.02;;;;;;;22.13;68.65;98102.41;6038115;23;20086;-88
2024/03/31 11:29:53;;;;;;;15.82;10.57;;;;;;;22.52;67.37;98105.34;6038785;23;20027;-88
2024/03/31 11:32:19;;;;;;;14.73;8.75;;;;;;;22.83;65.77;98094.22;6015418;23;20090;-88
2024/03/31 11:34:48;;;;;;;12.60;8.00;;;;;;;23.12;62.16;98106.34;6038934;23;20555;-88
2024/03/31 11:37:15;;;;;;;15.77;10.73;;;;;;;23.39;63.50;98089.34;6015597;23;20043;-88
2024/03/31 11:39:41;;;;;;;14.82;10.23;;;;;;;23.66;63.88;98091.94;6015719;23;20331;-88
2024/03/31 11:42:07;;;;;;;12.30;8.85;;;;;;;23.92;62.25;98096.31;6016049;23;20031;-88
2024/03/31 11:44:35;;;;;;;11.43;8.73;;;;;;;24.19;61.54;98103.44;6017514;23;20034;-88
2024/03/31 11:47:04;;;;;;;15.40;8.18;;;;;;;24.43;58.63;98106.34;6018262;23;20023;-88
2024/03/31 11:49:34;;;;;;;13.13;7.85;;;;;;;24.68;58.67;98101.00;6041985;23;20409;-88
2024/03/31 11:52:00;;;;;;;14.73;8.18;;;;;;;24.89;57.88;98098.13;6017637;23;20023;-88
2024/03/31 11:54:27;;;;;;;13.20;8.30;;;;;;;25.01;58.21;98099.06;6041118;23;20368;-88
2024/03/31 11:56:53;;;;;;;11.48;7.88;;;;;;;25.10;57.43;98095.00;6041367;23;20023;-88
2024/03/31 11:59:20;;;;;;;12.57;8.05;;;;;;;25.19;56.78;98092.84;6018022;23;20516;-88
2024/03/31 12:01:54;;;;;;;14.93;7.65;;;;;;;25.30;56.89;98099.34;6018395;23;20033;-89
2024/03/31 12:04:20;;;;;;;13.07;8.25;;;;;;;25.41;56.39;98092.38;6041165;23;20461;-89
2024/03/31 12:06:54;;;;;;;12.45;6.80;;;;;;;25.52;56.21;98104.25;6042112;23;20031;-89
2024/03/31 12:09:20;;;;;;;10.88;7.80;;;;;;;25.67;57.04;98095.00;6043326;23;20027;-88
2024/03/31 12:11:47;;;;;;;8.88;6.10;;;;;;;25.87;56.56;98090.16;6041306;23;20029;-89
2024/03/31 12:14:13;;;;;;;10.88;6.50;;;;;;;26.14;56.62;98079.00;6017898;23;20488;-88
2024/03/31 12:16:42;;;;;;;12.27;6.85;;;;;;;26.45;55.79;98076.25;6041678;23;20031;-88
2024/03/31 12:19:08;;;;;;;9.75;6.32;;;;;;;26.74;54.88;98067.44;6017891;23;20022;-89
2024/03/31 12:21:34;;;;;;;11.20;6.95;;;;;;;26.95;53.18;98063.38;6018162;23;20027;-88
2024/03/31 12:24:01;;;;;;;12.40;6.88;;;;;;;27.16;54.19;98067.31;6017276;23;20023;-89
2024/03/31 12:26:27;;;;;;;9.27;6.25;;;;;;;27.42;54.00;98056.19;6017771;23;20034;-89
2024/03/31 12:28:53;;;;;;;10.43;6.20;;;;;;;27.68;53.04;98045.91;6017967;23;20123;-89
2024/03/31 12:31:20;;;;;;;9.95;5.20;;;;;;;27.91;51.36;98057.66;6018004;23;20034;-88
2024/03/31 12:33:49;;;;;;;11.38;5.45;;;;;;;28.07;48.19;98051.47;6017496;23;20461;-88
2024/03/31 12:36:15;;;;;;;10.50;5.22;;;;;;;28.27;50.52;98052.06;6017558;23;20026;-88
2024/03/31 12:38:42;;;;;;;9.43;4.75;;;;;;;28.37;50.00;98054.97;6040938;23;20022;-88
2024/03/31 12:41:12;;;;;;;7.32;4.22;;;;;;;28.39;46.66;98042.00;6040978;23;20499;-88
2024/03/31 12:43:38;;;;;;;8.25;4.43;;;;;;;28.44;48.67;98039.34;6017452;23;20071;-88
2024/03/31 12:46:12;;;;;;;8.35;3.65;;;;;;;28.46;46.62;98037.22;6041413;23;20476;-88
2024/03/31 12:48:38;;;;;;;7.55;4.13;;;;;;;28.56;47.85;98038.44;6041260;23;20365;-88
